sensor_id;sensor_type;location;lat;lon;timestamp;pressure;altitude;pressure_sealevel;temperature;humidity
11499;BME280;5806;48.748;9.278;2024-01-16T00:01:07;100282.58;;;2.29;87.31
11499;BME280;5806;48.748;9.278;2024-01-16T00:03:35;100272.94;;;2.31;86.72
11499;BME280;5806;48.748;9.278;2024-01-16T00:06:03;100281.00;;;2.24;87.17
11499;BME280;5806;48.748;9.278;2024-01-16T00:08:30;100281.94;;;2.21;86.74
11499;BME280;5806;48.748;9.278;2024-01-16T00:10:58;100273.22;;;2.25;86.96
11499;BME280;5806;48.748;9.278;2024-01-16T00:13:25;100272.78;;;2.39;86.76
11499;BME280;5806;48.748;9.278;2024-01-16T00:15:53;100275.28;;;2.40;86.04
11499;BME280;5806;48.748;9.278;2024-01-16T00:18:23;100270.19;;;2.18;87.10
11499;BME280;5806;48.748;9.278;2024-01-16T00:20:50;100276.41;;;2.35;87.41
11499;BME280;5806;48.748;9.278;2024-01-16T00:23:18;100285.11;;;2.37;87.26
11499;BME280;5806;48.748;9.278;2024-01-16T00:25:45;100285.59;;;2.47;86.60
11499;BME280;5806;48.748;9.278;2024-01-16T00:28:12;100284.55;;;2.25;87.08
11499;BME280;5806;48.748;9.278;2024-01-16T00:30:40;100287.76;;;2.48;86.45
11499;BME280;5806;48.748;9.278;2024-01-16T00:33:07;100288.55;;;2.35;87.13
11499;BME280;5806;48.748;9.278;2024-01-16T00:35:36;100293.41;;;2.53;86.81
11499;BME280;5806;48.748;9.278;2024-01-16T00:38:03;100290.38;;;2.52;86.23
11499;BME280;5806;48.748;9.278;2024-01-16T00:40:31;100294.73;;;2.46;86.98
11499;BME280;5806;48.748;9.278;2024-01-16T00:42:59;100300.33;;;2.45;86.76
11499;BME280;5806;48.748;9.278;2024-01-16T00:45:26;100303.81;;;2.39;86.67
11499;BME280;5806;48.748;9.278;2024-01-16T00:47:54;100304.33;;;2.21;86.75
11499;BME280;5806;48.748;9.278;2024-01-16T00:50:21;100307.86;;;2.39;86.38
11499;BME280;5806;48.748;9.278;2024-01-16T00:52:50;100312.33;;;2.59;86.20
11499;BME280;5806;48.748;9.278;2024-01-16T00:55:18;100303.94;;;2.24;86.46
11499;BME280;5806;48.748;9.278;2024-01-16T00:57:45;100307.66;;;2.40;86.49
11499;BME280;5806;48.748;9.278;2024-01-16T01:00:13;100313.79;;;2.38;86.71
11499;BME280;5806;48.748;9.278;2024-01-16T01:02:40;100315.31;;;2.20;87.43
11499;BME280;5806;48.748;9.278;2024-01-16T01:05:08;100326.48;;;2.27;87.00
11499;BME280;5806;48.748;9.278;2024-01-16T01:07:36;100325.13;;;2.27;86.93
11499;BME280;5806;48.748;9.278;2024-01-16T01:10:03;100334.27;;;2.26;86.80
11499;BME280;5806;48.748;9.278;2024-01-16T01:12:31;100333.58;;;2.18;87.35
11499;BME280;5806;48.748;9.278;2024-01-16T01:14:59;100337.94;;;2.19;87.41
11499;BME280;5806;48.748;9.278;2024-01-16T01:17:26;100343.09;;;2.14;87.47
11499;BME280;5806;48.748;9.278;2024-01-16T01:19:53;100340.55;;;2.40;86.31
11499;BME280;5806;48.748;9.278;2024-01-16T01:22:21;100341.24;;;2.31;86.50
11499;BME280;5806;48.748;9.278;2024-01-16T01:24:48;100336.86;;;2.13;86.82
11499;BME280;5806;48.748;9.278;2024-01-16T01:27:16;100335.16;;;2.06;87.09
11499;BME280;5806;48.748;9.278;2024-01-16T01:29:43;100347.67;;;2.03;87.41
11499;BME280;5806;48.748;9.278;2024-01-16T01:32:10;100346.56;;;2.18;87.34
11499;BME280;5806;48.748;9.278;2024-01-16T01:34:38;100351.23;;;2.37;86.18
11499;BME280;5806;48.748;9.278;2024-01-16T01:37:07;100348.41;;;2.52;85.18
11499;BME280;5806;48.748;9.278;2024-01-16T01:39:35;100346.88;;;2.36;85.92
11499;BME280;5806;48.748;9.278;2024-01-16T01:42:02;100342.83;;;2.36;86.26
11499;BME280;5806;48.748;9.278;2024-01-16T01:44:30;100346.23;;;2.51;85.58
11499;BME280;5806;48.748;9.278;2024-01-16T01:46:58;100348.95;;;2.34;85.67
11499;BME280;5806;48.748;9.278;2024-01-16T01:49:25;100344.14;;;2.30;86.46
11499;BME280;5806;48.748;9.278;2024-01-16T01:51:55;100348.77;;;2.25;86.10
11499;BME280;5806;48.748;9.278;2024-01-16T01:54:23;100350.95;;;2.26;86.38
11499;BME280;5806;48.748;9.278;2024-01-16T01:56:51;100356.70;;;2.16;86.49
11499;BME280;5806;48.748;9.278;2024-01-16T01:59:20;100349.88;;;2.37;84.79
11499;BME280;5806;48.748;9.278;2024-01-16T02:01:50;100344.68;;;2.36;85.65
11499;BME280;5806;48.748;9.278;2024-01-16T02:04:22;100349.34;;;2.14;86.46
11499;BME280;5806;48.748;9.278;2024-01-16T02:06:50;100357.78;;;2.22;85.99
11499;BME280;5806;48.748;9.278;2024-01-16T02:09:18;100360.28;;;2.06;86.58
11499;BME280;5806;48.748;9.278;2024-01-16T02:11:46;100367.69;;;2.15;86.82
11499;BME280;5806;48.748;9.278;2024-01-16T02:14:13;100365.87;;;2.22;86.71
11499;BME280;5806;48.748;9.278;2024-01-16T02:16:42;100365.38;;;2.22;86.77
11499;BME280;5806;48.748;9.278;2024-01-16T02:19:11;100360.91;;;2.25;86.35
11499;BME280;5806;48.748;9.278;2024-01-16T02:21:46;100363.86;;;2.03;87.40
11499;BME280;5806;48.748;9.278;2024-01-16T02:24:13;100364.59;;;2.01;87.95
11499;BME280;5806;48.748;9.278;2024-01-16T02:26:43;100360.21;;;2.27;87.43
11499;BME280;5806;48.748;9.278;2024-01-16T02:29:10;100367.27;;;2.45;86.25
11499;BME280;5806;48.748;9.278;2024-01-16T02:31:38;100371.47;;;2.37;86.91
11499;BME280;5806;48.748;9.278;2024-01-16T02:34:05;100373.89;;;2.26;86.53
11499;BME280;5806;48.748;9.278;2024-01-16T02:36:33;100363.14;;;2.15;87.23
11499;BME280;5806;48.748;9.278;2024-01-16T02:39:00;100363.02;;;2.13;87.00
11499;BME280;5806;48.748;9.278;2024-01-16T02:41:27;100357.51;;;2.44;86.33
11499;BME280;5806;48.748;9.278;2024-01-16T02:43:55;100364.41;;;2.19;86.68
11499;BME280;5806;48.748;9.278;2024-01-16T02:46:22;100361.33;;;2.12;86.69
11499;BME280;5806;48.748;9.278;2024-01-16T02:48:50;100359.78;;;2.13;87.42
11499;BME280;5806;48.748;9.278;2024-01-16T02:51:18;100362.83;;;2.04;87.26
11499;BME280;5806;48.748;9.278;2024-01-16T02:53:45;100361.05;;;2.00;87.05
11499;BME280;5806;48.748;9.278;2024-01-16T02:56:13;100363.28;;;2.07;87.60
11499;BME280;5806;48.748;9.278;2024-01-16T02:58:40;100357.77;;;2.05;87.53
11499;BME280;5806;48.748;9.278;2024-01-16T03:01:08;100360.85;;;2.02;87.31
11499;BME280;5806;48.748;9.278;2024-01-16T03:03:35;100358.05;;;2.16;87.03
11499;BME280;5806;48.748;9.278;2024-01-16T03:06:03;100363.95;;;2.16;87.64
11499;BME280;5806;48.748;9.278;2024-01-16T03:08:30;100360.75;;;2.16;86.99
11499;BME280;5806;48.748;9.278;2024-01-16T03:10:58;100359.74;;;2.07;86.78
11499;BME280;5806;48.748;9.278;2024-01-16T03:13:25;100358.97;;;2.13;87.42
11499;BME280;5806;48.748;9.278;2024-01-16T03:15:53;100354.64;;;1.91;87.67
11499;BME280;5806;48.748;9.278;2024-01-16T03:18:20;100361.80;;;1.88;87.19
11499;BME280;5806;48.748;9.278;2024-01-16T03:20:48;100360.81;;;1.95;87.53
11499;BME280;5806;48.748;9.278;2024-01-16T03:23:15;100364.78;;;1.99;87.22
11499;BME280;5806;48.748;9.278;2024-01-16T03:25:43;100357.43;;;2.14;86.91
11499;BME280;5806;48.748;9.278;2024-01-16T03:28:10;100356.70;;;2.16;86.64
11499;BME280;5806;48.748;9.278;2024-01-16T03:30:38;100361.83;;;2.22;86.31
11499;BME280;5806;48.748;9.278;2024-01-16T03:33:05;100361.33;;;2.22;86.66
11499;BME280;5806;48.748;9.278;2024-01-16T03:35:33;100360.29;;;2.23;86.24
11499;BME280;5806;48.748;9.278;2024-01-16T03:38:00;100359.16;;;2.11;86.64
11499;BME280;5806;48.748;9.278;2024-01-16T03:40:27;100363.13;;;1.98;87.14
11499;BME280;5806;48.748;9.278;2024-01-16T03:42:57;100362.42;;;1.90;87.27
11499;BME280;5806;48.748;9.278;2024-01-16T03:45:24;100358.56;;;1.88;87.94
11499;BME280;5806;48.748;9.278;2024-01-16T03:47:51;100354.95;;;2.02;86.91
11499;BME280;5806;48.748;9.278;2024-01-16T03:50:19;100355.51;;;1.81;87.36
11499;BME280;5806;48.748;9.278;2024-01-16T03:52:46;100361.72;;;1.92;87.37
11499;BME280;5806;48.748;9.278;2024-01-16T03:55:14;100356.97;;;2.11;87.00
11499;BME280;5806;48.748;9.278;2024-01-16T03:57:41;100355.72;;;1.96;87.11
11499;BME280;5806;48.748;9.278;2024-01-16T04:00:11;100351.73;;;2.03;86.14
11499;BME280;5806;48.748;9.278;2024-01-16T04:02:38;100351.44;;;1.91;87.40
11499;BME280;5806;48.748;9.278;2024-01-16T04:05:06;100352.50;;;2.07;86.48
11499;BME280;5806;48.748;9.278;2024-01-16T04:07:34;100350.33;;;1.96;86.86
11499;BME280;5806;48.748;9.278;2024-01-16T04:10:01;100351.30;;;2.16;86.08
11499;BME280;5806;48.748;9.278;2024-01-16T04:12:30;100348.50;;;2.31;85.95
11499;BME280;5806;48.748;9.278;2024-01-16T04:14:58;100344.83;;;2.11;85.84
11499;BME280;5806;48.748;9.278;2024-01-16T04:17:25;100347.83;;;1.95;86.49
11499;BME280;5806;48.748;9.278;2024-01-16T04:19:52;100344.60;;;2.23;85.91
11499;BME280;5806;48.748;9.278;2024-01-16T04:22:20;100344.82;;;1.94;86.67
11499;BME280;5806;48.748;9.278;2024-01-16T04:24:47;100346.49;;;2.12;86.22
11499;BME280;5806;48.748;9.278;2024-01-16T04:27:15;100351.48;;;1.98;86.63
11499;BME280;5806;48.748;9.278;2024-01-16T04:29:42;100349.34;;;2.04;86.95
11499;BME280;5806;48.748;9.278;2024-01-16T04:32:10;100352.79;;;1.91;87.09
11499;BME280;5806;48.748;9.278;2024-01-16T04:34:37;100358.49;;;1.92;86.88
11499;BME280;5806;48.748;9.278;2024-01-16T04:37:04;100354.33;;;1.90;87.31
11499;BME280;5806;48.748;9.278;2024-01-16T04:39:32;100350.61;;;2.08;86.70
11499;BME280;5806;48.748;9.278;2024-01-16T04:41:59;100353.80;;;2.01;86.76
11499;BME280;5806;48.748;9.278;2024-01-16T04:44:27;100353.45;;;2.10;86.20
11499;BME280;5806;48.748;9.278;2024-01-16T04:46:54;100350.26;;;2.00;86.37
11499;BME280;5806;48.748;9.278;2024-01-16T04:49:22;100356.57;;;1.97;86.71
11499;BME280;5806;48.748;9.278;2024-01-16T04:51:50;100363.02;;;2.30;86.40
11499;BME280;5806;48.748;9.278;2024-01-16T04:54:17;100362.56;;;2.09;86.53
11499;BME280;5806;48.748;9.278;2024-01-16T04:56:45;100355.59;;;2.21;86.00
11499;BME280;5806;48.748;9.278;2024-01-16T04:59:12;100358.08;;;2.06;86.17
11499;BME280;5806;48.748;9.278;2024-01-16T05:01:39;100355.94;;;2.12;86.75
11499;BME280;5806;48.748;9.278;2024-01-16T05:04:07;100352.95;;;2.00;86.39
11499;BME280;5806;48.748;9.278;2024-01-16T05:06:36;100360.05;;;2.18;86.18
11499;BME280;5806;48.748;9.278;2024-01-16T05:09:03;100353.16;;;2.26;85.74
11499;BME280;5806;48.748;9.278;2024-01-16T05:11:31;100352.14;;;1.89;86.21
11499;BME280;5806;48.748;9.278;2024-01-16T05:13:59;100352.88;;;2.04;86.11
11499;BME280;5806;48.748;9.278;2024-01-16T05:16:27;100346.43;;;1.88;86.54
11499;BME280;5806;48.748;9.278;2024-01-16T05:18:54;100347.33;;;1.95;86.59
11499;BME280;5806;48.748;9.278;2024-01-16T05:21:21;100346.87;;;2.02;86.61
11499;BME280;5806;48.748;9.278;2024-01-16T05:23:49;100341.59;;;2.05;86.50
11499;BME280;5806;48.748;9.278;2024-01-16T05:26:16;100344.46;;;1.86;87.36
11499;BME280;5806;48.748;9.278;2024-01-16T05:28:44;100346.52;;;1.74;87.25
11499;BME280;5806;48.748;9.278;2024-01-16T05:31:11;100345.39;;;1.89;87.71
11499;BME280;5806;48.748;9.278;2024-01-16T05:33:39;100341.84;;;1.82;87.62
11499;BME280;5806;48.748;9.278;2024-01-16T05:36:06;100341.39;;;1.96;88.17
11499;BME280;5806;48.748;9.278;2024-01-16T05:38:34;100341.08;;;1.67;89.37
11499;BME280;5806;48.748;9.278;2024-01-16T05:41:01;100347.70;;;1.92;88.76
11499;BME280;5806;48.748;9.278;2024-01-16T05:43:30;100345.98;;;1.95;88.55
11499;BME280;5806;48.748;9.278;2024-01-16T05:45:57;100342.44;;;1.95;89.01
11499;BME280;5806;48.748;9.278;2024-01-16T05:48:24;100337.28;;;2.00;87.92
11499;BME280;5806;48.748;9.278;2024-01-16T05:50:52;100338.87;;;1.88;87.37
11499;BME280;5806;48.748;9.278;2024-01-16T05:53:19;100330.59;;;1.79;86.96
11499;BME280;5806;48.748;9.278;2024-01-16T05:55:47;100338.50;;;1.97;86.93
11499;BME280;5806;48.748;9.278;2024-01-16T05:58:14;100328.86;;;1.82;86.94
11499;BME280;5806;48.748;9.278;2024-01-16T06:00:41;100325.32;;;1.92;88.16
11499;BME280;5806;48.748;9.278;2024-01-16T06:03:09;100322.52;;;1.96;87.03
11499;BME280;5806;48.748;9.278;2024-01-16T06:05:36;100324.78;;;1.92;87.62
11499;BME280;5806;48.748;9.278;2024-01-16T06:08:04;100323.59;;;1.84;88.17
11499;BME280;5806;48.748;9.278;2024-01-16T06:10:31;100318.94;;;1.99;88.70
11499;BME280;5806;48.748;9.278;2024-01-16T06:12:59;100318.47;;;1.96;87.31
11499;BME280;5806;48.748;9.278;2024-01-16T06:15:26;100320.16;;;1.97;87.23
11499;BME280;5806;48.748;9.278;2024-01-16T06:17:54;100319.13;;;2.15;87.38
11499;BME280;5806;48.748;9.278;2024-01-16T06:20:21;100322.14;;;2.16;86.08
11499;BME280;5806;48.748;9.278;2024-01-16T06:22:50;100321.24;;;2.02;86.34
11499;BME280;5806;48.748;9.278;2024-01-16T06:25:18;100321.98;;;2.07;86.99
11499;BME280;5806;48.748;9.278;2024-01-16T06:27:45;100314.42;;;2.06;87.74
11499;BME280;5806;48.748;9.278;2024-01-16T06:30:12;100320.00;;;1.88;87.02
11499;BME280;5806;48.748;9.278;2024-01-16T06:32:40;100327.91;;;2.06;86.30
11499;BME280;5806;48.748;9.278;2024-01-16T06:35:07;100330.00;;;2.11;85.66
11499;BME280;5806;48.748;9.278;2024-01-16T06:37:36;100327.41;;;1.96;85.42
11499;BME280;5806;48.748;9.278;2024-01-16T06:40:04;100331.30;;;2.04;84.34
11499;BME280;5806;48.748;9.278;2024-01-16T06:42:31;100334.92;;;2.01;85.93
11499;BME280;5806;48.748;9.278;2024-01-16T06:44:59;100329.22;;;1.89;86.80
11499;BME280;5806;48.748;9.278;2024-01-16T06:47:27;100337.47;;;2.09;86.68
11499;BME280;5806;48.748;9.278;2024-01-16T06:49:54;100330.03;;;2.00;86.88
11499;BME280;5806;48.748;9.278;2024-01-16T06:52:21;100335.92;;;2.00;84.68
11499;BME280;5806;48.748;9.278;2024-01-16T06:54:49;100326.11;;;2.20;84.18
11499;BME280;5806;48.748;9.278;2024-01-16T06:57:16;100332.03;;;2.19;83.33
11499;BME280;5806;48.748;9.278;2024-01-16T06:59:44;100338.17;;;2.24;83.85
11499;BME280;5806;48.748;9.278;2024-01-16T07:02:11;100335.77;;;2.18;82.77
11499;BME280;5806;48.748;9.278;2024-01-16T07:04:38;100334.73;;;2.19;83.25
11499;BME280;5806;48.748;9.278;2024-01-16T07:07:06;100332.53;;;2.02;84.74
11499;BME280;5806;48.748;9.278;2024-01-16T07:09:34;100342.89;;;1.98;84.82
11499;BME280;5806;48.748;9.278;2024-01-16T07:12:01;100342.52;;;2.08;84.00
11499;BME280;5806;48.748;9.278;2024-01-16T07:14:30;100347.84;;;2.12;83.77
11499;BME280;5806;48.748;9.278;2024-01-16T07:16:58;100346.72;;;2.10;83.49
11499;BME280;5806;48.748;9.278;2024-01-16T07:19:25;100348.33;;;2.05;82.34
11499;BME280;5806;48.748;9.278;2024-01-16T07:21:53;100354.47;;;2.09;82.39
11499;BME280;5806;48.748;9.278;2024-01-16T07:24:23;100354.16;;;2.25;82.48
11499;BME280;5806;48.748;9.278;2024-01-16T07:26:50;100360.83;;;2.29;80.04
11499;BME280;5806;48.748;9.278;2024-01-16T07:29:19;100356.16;;;2.27;80.16
11499;BME280;5806;48.748;9.278;2024-01-16T07:31:47;100360.95;;;2.32;80.11
11499;BME280;5806;48.748;9.278;2024-01-16T07:34:14;100367.30;;;2.18;79.56
11499;BME280;5806;48.748;9.278;2024-01-16T07:36:43;100367.15;;;2.26;78.66
11499;BME280;5806;48.748;9.278;2024-01-16T07:39:11;100367.18;;;2.15;78.73
11499;BME280;5806;48.748;9.278;2024-01-16T07:41:38;100368.44;;;2.02;79.05
11499;BME280;5806;48.748;9.278;2024-01-16T07:44:05;100372.02;;;1.99;78.48
11499;BME280;5806;48.748;9.278;2024-01-16T07:46:34;100371.89;;;2.24;78.37
11499;BME280;5806;48.748;9.278;2024-01-16T07:49:01;100369.12;;;2.28;80.39
11499;BME280;5806;48.748;9.278;2024-01-16T07:51:28;100363.69;;;2.21;80.07
11499;BME280;5806;48.748;9.278;2024-01-16T07:54:07;100374.09;;;2.24;78.85
11499;BME280;5806;48.748;9.278;2024-01-16T07:56:35;100383.84;;;2.25;77.86
11499;BME280;5806;48.748;9.278;2024-01-16T07:59:04;100383.72;;;2.23;80.17
11499;BME280;5806;48.748;9.278;2024-01-16T08:01:31;100375.13;;;2.23;80.13
11499;BME280;5806;48.748;9.278;2024-01-16T08:03:59;100377.98;;;2.32;77.57
11499;BME280;5806;48.748;9.278;2024-01-16T08:06:27;100378.71;;;2.30;77.62
11499;BME280;5806;48.748;9.278;2024-01-16T08:08:54;100379.91;;;2.38;77.71
11499;BME280;5806;48.748;9.278;2024-01-16T08:11:21;100383.80;;;2.36;76.50
11499;BME280;5806;48.748;9.278;2024-01-16T08:13:49;100381.09;;;2.19;77.18
11499;BME280;5806;48.748;9.278;2024-01-16T08:16:16;100386.03;;;2.26;77.37
11499;BME280;5806;48.748;9.278;2024-01-16T08:18:44;100382.95;;;2.29;76.05
11499;BME280;5806;48.748;9.278;2024-01-16T08:21:11;100386.61;;;2.21;75.76
11499;BME280;5806;48.748;9.278;2024-01-16T08:23:38;100384.41;;;2.14;74.71
11499;BME280;5806;48.748;9.278;2024-01-16T08:26:06;100384.14;;;2.37;74.96
11499;BME280;5806;48.748;9.278;2024-01-16T08:28:33;100391.20;;;2.38;75.23
11499;BME280;5806;48.748;9.278;2024-01-16T08:31:02;100388.03;;;2.17;74.71
11499;BME280;5806;48.748;9.278;2024-01-16T08:33:29;100401.52;;;2.17;74.25
11499;BME280;5806;48.748;9.278;2024-01-16T08:35:57;100394.91;;;2.30;75.62
11499;BME280;5806;48.748;9.278;2024-01-16T08:38:25;100404.12;;;2.42;75.01
11499;BME280;5806;48.748;9.278;2024-01-16T08:40:52;100403.19;;;2.29;75.26
11499;BME280;5806;48.748;9.278;2024-01-16T08:43:20;100405.55;;;2.38;74.03
11499;BME280;5806;48.748;9.278;2024-01-16T08:45:47;100409.98;;;2.52;73.35
11499;BME280;5806;48.748;9.278;2024-01-16T08:48:14;100409.94;;;2.29;74.05
11499;BME280;5806;48.748;9.278;2024-01-16T08:50:43;100407.72;;;2.11;73.12
11499;BME280;5806;48.748;9.278;2024-01-16T08:53:10;100403.81;;;2.31;74.17
11499;BME280;5806;48.748;9.278;2024-01-16T08:55:37;100411.02;;;2.34;74.07
11499;BME280;5806;48.748;9.278;2024-01-16T08:58:05;100416.87;;;2.27;72.41
11499;BME280;5806;48.748;9.278;2024-01-16T09:00:32;100412.59;;;2.39;74.11
11499;BME280;5806;48.748;9.278;2024-01-16T09:03:00;100417.11;;;2.32;73.46
11499;BME280;5806;48.748;9.278;2024-01-16T09:05:28;100411.78;;;2.28;73.29
11499;BME280;5806;48.748;9.278;2024-01-16T09:07:55;100413.06;;;2.49;72.18
11499;BME280;5806;48.748;9.278;2024-01-16T09:10:22;100413.34;;;2.44;72.72
11499;BME280;5806;48.748;9.278;2024-01-16T09:12:50;100413.48;;;2.36;72.67
11499;BME280;5806;48.748;9.278;2024-01-16T09:15:17;100416.53;;;2.37;71.90
11499;BME280;5806;48.748;9.278;2024-01-16T09:17:45;100412.88;;;2.51;72.16
11499;BME280;5806;48.748;9.278;2024-01-16T09:20:12;100414.57;;;2.58;72.04
11499;BME280;5806;48.748;9.278;2024-01-16T09:22:40;100416.41;;;2.34;70.66
11499;BME280;5806;48.748;9.278;2024-01-16T09:25:07;100429.06;;;2.68;70.36
11499;BME280;5806;48.748;9.278;2024-01-16T09:27:35;100420.55;;;2.47;69.80
11499;BME280;5806;48.748;9.278;2024-01-16T09:30:04;100421.47;;;2.33;69.71
11499;BME280;5806;48.748;9.278;2024-01-16T09:32:32;100421.55;;;2.57;69.92
11499;BME280;5806;48.748;9.278;2024-01-16T09:35:02;100422.86;;;2.40;68.82
11499;BME280;5806;48.748;9.278;2024-01-16T09:37:31;100427.56;;;2.42;69.87
11499;BME280;5806;48.748;9.278;2024-01-16T09:39:59;100430.02;;;2.37;68.94
11499;BME280;5806;48.748;9.278;2024-01-16T09:42:27;100437.13;;;2.17;69.04
11499;BME280;5806;48.748;9.278;2024-01-16T09:44:55;100435.54;;;2.39;69.65
11499;BME280;5806;48.748;9.278;2024-01-16T09:47:24;100427.55;;;2.25;70.50
11499;BME280;5806;48.748;9.278;2024-01-16T09:49:52;100428.62;;;2.30;69.27
11499;BME280;5806;48.748;9.278;2024-01-16T09:52:22;100435.30;;;2.34;70.52
11499;BME280;5806;48.748;9.278;2024-01-16T09:54:49;100434.55;;;2.47;70.31
11499;BME280;5806;48.748;9.278;2024-01-16T09:57:24;100426.75;;;2.48;69.73
11499;BME280;5806;48.748;9.278;2024-01-16T09:59:51;100429.19;;;2.53;71.74
11499;BME280;5806;48.748;9.278;2024-01-16T10:02:19;100428.14;;;2.65;69.97
11499;BME280;5806;48.748;9.278;2024-01-16T10:04:48;100429.80;;;2.66;71.26
11499;BME280;5806;48.748;9.278;2024-01-16T10:07:16;100416.96;;;2.57;70.75
11499;BME280;5806;48.748;9.278;2024-01-16T10:09:44;100417.42;;;2.61;71.08
11499;BME280;5806;48.748;9.278;2024-01-16T10:12:11;100422.44;;;2.53;69.70
11499;BME280;5806;48.748;9.278;2024-01-16T10:14:41;100423.09;;;2.55;69.19
11499;BME280;5806;48.748;9.278;2024-01-16T10:17:11;100422.09;;;2.63;70.05
11499;BME280;5806;48.748;9.278;2024-01-16T10:19:51;100414.98;;;2.72;70.24
11499;BME280;5806;48.748;9.278;2024-01-16T10:22:23;100417.44;;;2.84;69.75
11499;BME280;5806;48.748;9.278;2024-01-16T10:25:11;100413.56;;;2.42;69.02
11499;BME280;5806;48.748;9.278;2024-01-16T10:27:42;100415.72;;;2.43;70.10
11499;BME280;5806;48.748;9.278;2024-01-16T10:30:09;100404.38;;;2.71;71.16
11499;BME280;5806;48.748;9.278;2024-01-16T10:32:39;100401.37;;;2.70;70.51
11499;BME280;5806;48.748;9.278;2024-01-16T10:35:11;100392.89;;;2.62;69.17
11499;BME280;5806;48.748;9.278;2024-01-16T10:37:52;100388.83;;;2.73;69.84
11499;BME280;5806;48.748;9.278;2024-01-16T10:40:21;100381.06;;;2.80;70.35
11499;BME280;5806;48.748;9.278;2024-01-16T10:43:04;100383.31;;;2.94;70.01
11499;BME280;5806;48.748;9.278;2024-01-16T10:45:34;100382.77;;;2.94;67.83
11499;BME280;5806;48.748;9.278;2024-01-16T10:48:08;100378.34;;;3.04;69.53
11499;BME280;5806;48.748;9.278;2024-01-16T10:50:37;100372.62;;;2.96;69.36
11499;BME280;5806;48.748;9.278;2024-01-16T10:53:07;100369.61;;;2.78;68.74
11499;BME280;5806;48.748;9.278;2024-01-16T10:55:43;100368.94;;;2.63;68.11
11499;BME280;5806;48.748;9.278;2024-01-16T10:58:05;100364.19;;;2.89;68.63
11499;BME280;5806;48.748;9.278;2024-01-16T11:00:35;100371.09;;;3.04;67.71
11499;BME280;5806;48.748;9.278;2024-01-16T11:03:11;100368.73;;;3.18;67.74
11499;BME280;5806;48.748;9.278;2024-01-16T11:05:39;100365.83;;;3.20;67.43
11499;BME280;5806;48.748;9.278;2024-01-16T11:08:08;100361.96;;;3.12;66.43
11499;BME280;5806;48.748;9.278;2024-01-16T11:10:40;100364.59;;;3.22;67.15
11499;BME280;5806;48.748;9.278;2024-01-16T11:13:09;100365.11;;;3.15;66.11
11499;BME280;5806;48.748;9.278;2024-01-16T11:15:38;100359.80;;;3.11;66.63
11499;BME280;5806;48.748;9.278;2024-01-16T11:18:09;100352.58;;;3.01;65.77
11499;BME280;5806;48.748;9.278;2024-01-16T11:20:38;100353.20;;;2.97;66.47
11499;BME280;5806;48.748;9.278;2024-01-16T11:23:08;100352.55;;;2.95;65.83
11499;BME280;5806;48.748;9.278;2024-01-16T11:25:36;100355.19;;;2.75;65.80
11499;BME280;5806;48.748;9.278;2024-01-16T11:28:10;100354.55;;;2.97;66.42
11499;BME280;5806;48.748;9.278;2024-01-16T11:30:38;100353.92;;;3.01;65.98
11499;BME280;5806;48.748;9.278;2024-01-16T11:33:12;100358.66;;;3.16;67.30
11499;BME280;5806;48.748;9.278;2024-01-16T11:35:37;100355.61;;;2.79;65.88
11499;BME280;5806;48.748;9.278;2024-01-16T11:38:14;100365.47;;;2.99;66.07
11499;BME280;5806;48.748;9.278;2024-01-16T11:40:39;100362.89;;;3.08;66.07
11499;BME280;5806;48.748;9.278;2024-01-16T11:46:03;100369.96;;;2.45;65.31
11499;BME280;5806;48.748;9.278;2024-01-16T11:48:31;100359.80;;;2.64;66.05
11499;BME280;5806;48.748;9.278;2024-01-16T11:50:59;100364.59;;;2.52;64.66
11499;BME280;5806;48.748;9.278;2024-01-16T11:53:33;100359.72;;;2.68;66.21
11499;BME280;5806;48.748;9.278;2024-01-16T12:01:44;100342.34;;;3.14;65.14
11499;BME280;5806;48.748;9.278;2024-01-16T12:04:14;100332.78;;;2.88;64.73
11499;BME280;5806;48.748;9.278;2024-01-16T12:06:43;100324.18;;;2.88;64.74
11499;BME280;5806;48.748;9.278;2024-01-16T12:09:14;100328.19;;;2.75;64.33
11499;BME280;5806;48.748;9.278;2024-01-16T12:11:42;100328.91;;;2.80;64.55
11499;BME280;5806;48.748;9.278;2024-01-16T12:14:12;100329.80;;;2.63;64.28
11499;BME280;5806;48.748;9.278;2024-01-16T12:16:40;100323.46;;;2.67;65.66
11499;BME280;5806;48.748;9.278;2024-01-16T12:19:08;100316.35;;;2.53;64.10
11499;BME280;5806;48.748;9.278;2024-01-16T12:21:43;100322.67;;;2.56;64.38
11499;BME280;5806;48.748;9.278;2024-01-16T12:24:15;100316.92;;;2.89;64.17
11499;BME280;5806;48.748;9.278;2024-01-16T12:26:43;100303.06;;;2.81;62.95
11499;BME280;5806;48.748;9.278;2024-01-16T12:29:10;100303.00;;;2.98;64.80
11499;BME280;5806;48.748;9.278;2024-01-16T12:31:38;100300.53;;;2.73;63.46
11499;BME280;5806;48.748;9.278;2024-01-16T12:34:07;100286.27;;;2.92;64.71
11499;BME280;5806;48.748;9.278;2024-01-16T12:36:35;100285.22;;;2.87;65.22
11499;BME280;5806;48.748;9.278;2024-01-16T12:39:04;100290.11;;;2.87;65.29
11499;BME280;5806;48.748;9.278;2024-01-16T12:41:42;100284.23;;;2.71;63.32
11499;BME280;5806;48.748;9.278;2024-01-16T12:44:11;100282.80;;;3.11;63.88
11499;BME280;5806;48.748;9.278;2024-01-16T12:46:40;100276.88;;;2.75;62.85
11499;BME280;5806;48.748;9.278;2024-01-16T12:49:08;100275.26;;;2.87;62.49
11499;BME280;5806;48.748;9.278;2024-01-16T12:51:37;100268.91;;;2.84;63.22
11499;BME280;5806;48.748;9.278;2024-01-16T12:54:15;100268.31;;;2.95;62.25
11499;BME280;5806;48.748;9.278;2024-01-16T12:56:44;100268.34;;;3.08;61.52
11499;BME280;5806;48.748;9.278;2024-01-16T12:59:12;100265.09;;;3.02;62.07
11499;BME280;5806;48.748;9.278;2024-01-16T13:01:44;100262.84;;;3.25;61.90
11499;BME280;5806;48.748;9.278;2024-01-16T13:04:12;100252.58;;;3.31;60.92
11499;BME280;5806;48.748;9.278;2024-01-16T13:06:41;100252.58;;;3.51;61.02
11499;BME280;5806;48.748;9.278;2024-01-16T13:09:10;100247.58;;;3.15;61.76
11499;BME280;5806;48.748;9.278;2024-01-16T13:11:50;100236.66;;;3.52;61.85
11499;BME280;5806;48.748;9.278;2024-01-16T13:14:19;100243.02;;;3.48;60.99
11499;BME280;5806;48.748;9.278;2024-01-16T13:16:50;100239.27;;;3.49;61.05
11499;BME280;5806;48.748;9.278;2024-01-16T13:19:18;100234.88;;;3.68;60.85
11499;BME280;5806;48.748;9.278;2024-01-16T13:21:46;100242.58;;;3.38;59.57
11499;BME280;5806;48.748;9.278;2024-01-16T13:24:13;100248.91;;;3.61;61.78